createdAt,value
2023-05-09T00:01:13.513Z,99466.87
2023-05-09T00:03:43.128Z,99470.00
2023-05-09T00:06:11.452Z,99469.44
2023-05-09T00:08:38.588Z,99472.44
2023-05-09T00:11:06.008Z,99464.06
2023-05-09T00:13:34.679Z,99466.59
2023-05-09T00:16:01.804Z,99465.91
2023-05-09T00:18:31.139Z,99465.25
2023-05-09T00:20:58.442Z,99459.47
2023-05-09T00:23:25.674Z,99466.47
2023-05-09T00:25:53.113Z,99460.53
2023-05-09T00:28:20.494Z,99452.87
2023-05-09T00:30:47.565Z,99459.06
2023-05-09T00:33:15.193Z,99447.34
2023-05-09T00:35:42.313Z,99447.53
2023-05-09T00:38:09.536Z,99442.25
2023-05-09T00:40:36.890Z,99440.00
2023-05-09T00:43:04.806Z,99445.22
2023-05-09T00:45:31.913Z,99443.97
2023-05-09T00:48:01.383Z,99437.03
2023-05-09T00:50:28.743Z,99444.44
2023-05-09T00:52:56.063Z,99447.28
2023-05-09T00:55:23.697Z,99441.44
2023-05-09T00:57:50.811Z,99435.66
2023-05-09T01:00:18.256Z,99441.72
2023-05-09T01:02:49.374Z,99439.19
2023-05-09T01:05:17.002Z,99435.09
2023-05-09T01:08:13.547Z,99436.69
2023-05-09T01:10:49.128Z,99430.37
2023-05-09T01:13:24.902Z,99436.63
2023-05-09T01:16:01.430Z,99433.03
2023-05-09T01:18:51.115Z,99434.03
2023-05-09T01:21:24.444Z,99438.06
2023-05-09T01:24:00.714Z,99434.47
2023-05-09T01:26:58.749Z,99433.81
2023-05-09T01:29:58.239Z,99428.22
2023-05-09T01:32:28.398Z,99438.31
2023-05-09T01:34:56.675Z,99436.72
2023-05-09T01:37:34.292Z,99435.28
2023-05-09T01:40:09.914Z,99426.09
2023-05-09T01:42:43.874Z,99421.75
2023-05-09T01:45:12.806Z,99422.47
2023-05-09T01:47:40.829Z,99426.62
2023-05-09T01:50:09.615Z,99421.44
2023-05-09T01:52:37.913Z,99426.44
2023-05-09T01:55:06.900Z,99423.25
2023-05-09T01:57:35.422Z,99419.31
2023-05-09T02:00:03.539Z,99417.06
2023-05-09T02:02:41.033Z,99416.31
2023-05-09T02:05:11.291Z,99412.38
2023-05-09T02:07:38.923Z,99409.97
2023-05-09T02:10:07.935Z,99417.19
2023-05-09T02:12:38.274Z,99410.56
2023-05-09T02:15:06.513Z,99409.56
2023-05-09T02:17:33.736Z,99408.53
2023-05-09T02:20:01.042Z,99412.91
2023-05-09T02:22:28.245Z,99408.06
2023-05-09T02:24:55.352Z,99416.91
2023-05-09T02:27:22.815Z,99414.56
2023-05-09T02:29:51.908Z,99407.97
2023-05-09T02:32:29.903Z,99407.72
2023-05-09T02:34:58.507Z,99404.53
2023-05-09T02:37:26.015Z,99402.09
2023-05-09T02:39:53.070Z,99397.06
2023-05-09T02:42:22.775Z,99392.41
2023-05-09T02:44:49.759Z,99398.50
2023-05-09T02:47:16.780Z,99399.16
2023-05-09T02:49:44.792Z,99397.50
2023-05-09T02:52:12.312Z,99391.72
2023-05-09T02:54:39.368Z,99391.87
2023-05-09T02:57:06.867Z,99393.50
2023-05-09T02:59:33.923Z,99392.72
2023-05-09T03:02:01.604Z,99394.72
2023-05-09T03:04:29.180Z,99396.09
2023-05-09T03:06:56.398Z,99391.31
2023-05-09T03:09:24.659Z,99389.28
2023-05-09T03:11:51.933Z,99387.38
2023-05-09T03:14:18.947Z,99386.44
2023-05-09T03:16:45.994Z,99381.09
2023-05-09T03:19:14.525Z,99389.47
2023-05-09T03:21:41.865Z,99387.78
2023-05-09T03:24:10.590Z,99392.91
2023-05-09T03:26:37.900Z,99391.28
2023-05-09T03:29:04.977Z,99389.81
2023-05-09T03:31:32.196Z,99394.66
2023-05-09T03:33:59.577Z,99390.97
2023-05-09T03:36:27.465Z,99385.44
2023-05-09T03:38:54.971Z,99394.22
2023-05-09T03:41:22.777Z,99390.75
2023-05-09T03:43:50.279Z,99397.63
2023-05-09T03:46:17.386Z,99398.75
2023-05-09T03:48:45.382Z,99399.44
2023-05-09T03:51:12.398Z,99392.19
2023-05-09T03:53:39.811Z,99395.94
2023-05-09T03:56:07.953Z,99400.06
2023-05-09T03:58:37.688Z,99397.69
2023-05-09T04:01:04.763Z,99394.25
2023-05-09T04:03:32.524Z,99402.16
2023-05-09T04:05:59.956Z,99400.16
2023-05-09T04:08:27.524Z,99399.78
2023-05-09T04:10:54.882Z,99397.34
2023-05-09T04:13:23.100Z,99393.25
2023-05-09T04:15:50.995Z,99400.56
2023-05-09T04:18:18.360Z,99408.84
2023-05-09T04:20:45.527Z,99398.41
2023-05-09T04:23:12.970Z,99410.12
2023-05-09T04:25:40.500Z,99396.59
2023-05-09T04:28:08.345Z,99397.69
2023-05-09T04:30:37.162Z,99399.72
2023-05-09T04:33:04.616Z,99403.59
2023-05-09T04:35:32.545Z,99408.22
2023-05-09T04:37:59.864Z,99409.72
2023-05-09T04:40:27.325Z,99409.50
2023-05-09T04:42:54.851Z,99398.06
2023-05-09T04:45:22.645Z,99404.34
2023-05-09T04:47:50.033Z,99404.69
2023-05-09T04:50:17.531Z,99410.00
2023-05-09T04:52:44.585Z,99405.84
2023-05-09T04:55:12.346Z,99410.72
2023-05-09T04:57:40.385Z,99410.41
2023-05-09T05:00:11.470Z,99399.69
2023-05-09T05:02:39.311Z,99409.78
2023-05-09T05:05:12.165Z,99404.25
2023-05-09T05:07:40.540Z,99413.09
2023-05-09T05:10:08.698Z,99420.94
2023-05-09T05:12:36.376Z,99419.16
2023-05-09T05:15:07.730Z,99419.16
2023-05-09T05:17:35.082Z,99425.94
2023-05-09T05:20:03.184Z,99426.38
2023-05-09T05:22:32.705Z,99430.25
2023-05-09T05:25:00.005Z,99423.69
2023-05-09T05:27:27.257Z,99423.22
2023-05-09T05:29:54.825Z,99427.00
2023-05-09T05:32:22.133Z,99433.16
2023-05-09T05:34:49.364Z,99431.34
2023-05-09T05:37:16.911Z,99421.91
2023-05-09T05:39:44.033Z,99429.16
2023-05-09T05:42:11.465Z,99413.66
2023-05-09T05:44:40.965Z,99421.34
2023-05-09T05:47:08.048Z,99415.94
2023-05-09T05:49:35.083Z,99419.75
2023-05-09T05:52:02.376Z,99415.25
2023-05-09T05:54:29.754Z,99421.25
2023-05-09T05:56:56.842Z,99426.25
2023-05-09T05:59:24.165Z,99420.09
2023-05-09T06:01:51.466Z,99413.25
2023-05-09T06:04:18.941Z,99422.31
2023-05-09T06:06:46.975Z,99420.44
2023-05-09T06:09:15.157Z,99427.94
2023-05-09T06:11:42.747Z,99427.38
2023-05-09T06:14:09.764Z,99434.78
2023-05-09T06:16:36.794Z,99429.06
2023-05-09T06:19:04.686Z,99424.22
2023-05-09T06:21:32.116Z,99417.16
2023-05-09T06:24:08.479Z,99417.50
2023-05-09T06:26:37.730Z,99416.25
2023-05-09T06:29:06.352Z,99423.31
2023-05-09T06:31:38.421Z,99418.38
2023-05-09T06:34:06.126Z,99422.56
2023-05-09T06:36:35.033Z,99417.56
2023-05-09T06:39:02.160Z,99409.59
2023-05-09T06:41:29.528Z,99411.50
2023-05-09T06:43:56.626Z,99416.47
2023-05-09T06:46:23.722Z,99408.63
2023-05-09T06:48:51.197Z,99412.19
2023-05-09T06:51:18.279Z,99407.66
2023-05-09T06:53:45.449Z,99405.28
2023-05-09T06:56:12.890Z,99412.13
2023-05-09T06:58:39.996Z,99401.50
2023-05-09T07:01:07.157Z,99405.69
2023-05-09T07:03:34.561Z,99405.69
2023-05-09T07:06:01.787Z,99401.19
2023-05-09T07:08:28.975Z,99395.25
2023-05-09T07:10:56.316Z,99403.12
2023-05-09T07:13:23.431Z,99402.94
2023-05-09T07:15:50.716Z,99409.16
2023-05-09T07:18:18.207Z,99407.56
2023-05-09T07:20:45.350Z,99392.59
2023-05-09T07:23:12.496Z,99392.19
2023-05-09T07:25:40.032Z,99387.53
2023-05-09T07:28:07.104Z,99384.81
2023-05-09T07:30:34.223Z,99380.38
2023-05-09T07:33:01.964Z,99388.97
2023-05-09T07:35:29.819Z,99393.84
2023-05-09T07:37:56.833Z,99390.53
2023-05-09T07:40:24.461Z,99373.38
2023-05-09T07:42:53.490Z,99386.94
2023-05-09T07:45:23.500Z,99376.13
2023-05-09T07:47:51.322Z,99387.09
2023-05-09T07:50:18.470Z,99385.56
2023-05-09T07:52:45.752Z,99380.72
2023-05-09T07:55:13.173Z,99373.38
2023-05-09T07:57:40.333Z,99373.78
2023-05-09T08:00:08.905Z,99371.59
2023-05-09T08:02:40.580Z,99368.53
2023-05-09T08:05:11.348Z,99366.88
2023-05-09T08:07:38.709Z,99366.16
2023-05-09T08:10:06.868Z,99364.22
2023-05-09T08:12:34.782Z,99366.31
2023-05-09T08:15:02.651Z,99361.88
2023-05-09T08:17:29.891Z,99363.00
2023-05-09T08:19:57.191Z,99364.25
2023-05-09T08:22:24.767Z,99363.56
2023-05-09T08:24:52.844Z,99357.47
2023-05-09T08:27:20.095Z,99360.78
2023-05-09T08:29:47.116Z,99359.50
2023-05-09T08:32:14.426Z,99350.25
2023-05-09T08:34:41.725Z,99355.19
2023-05-09T08:37:08.686Z,99356.53
2023-05-09T08:39:35.954Z,99350.12
2023-05-09T08:42:04.387Z,99357.81
2023-05-09T08:44:32.112Z,99360.81
2023-05-09T08:47:03.363Z,99352.16
2023-05-09T08:49:30.964Z,99349.50
2023-05-09T08:51:59.109Z,99351.16
2023-05-09T08:54:26.406Z,99352.22
2023-05-09T08:56:54.168Z,99339.47
2023-05-09T08:59:21.403Z,99348.66
2023-05-09T09:01:48.795Z,99348.84
2023-05-09T09:04:16.220Z,99337.53
2023-05-09T09:06:43.684Z,99334.25
2023-05-09T09:09:11.791Z,99325.63
2023-05-09T09:11:40.590Z,99327.56
2023-05-09T09:14:27.637Z,99330.44
2023-05-09T09:16:56.219Z,99329.47
2023-05-09T09:19:27.924Z,99320.19
2023-05-09T09:21:57.884Z,99333.38
2023-05-09T09:24:25.106Z,99334.78
2023-05-09T09:26:52.729Z,99330.37
2023-05-09T09:29:23.639Z,99338.34
2023-05-09T09:31:55.307Z,99333.28
2023-05-09T09:34:23.720Z,99330.56
2023-05-09T09:36:51.872Z,99340.25
2023-05-09T09:39:19.350Z,99331.00
2023-05-09T09:41:46.651Z,99326.56
2023-05-09T09:44:16.186Z,99324.72
2023-05-09T09:46:43.705Z,99324.88
2023-05-09T09:49:12.886Z,99326.88
2023-05-09T09:51:40.793Z,99320.00
2023-05-09T09:54:09.321Z,99316.38
2023-05-09T09:56:50.371Z,99304.19
2023-05-09T09:59:19.371Z,99318.91
2023-05-09T10:02:07.594Z,99306.03
2023-05-09T10:04:41.663Z,99314.94
2023-05-09T10:07:12.833Z,99306.09
2023-05-09T10:09:43.812Z,99310.41
2023-05-09T10:12:11.431Z,99298.31
2023-05-09T10:14:38.695Z,99302.97
2023-05-09T10:17:06.927Z,99305.09
2023-05-09T10:19:36.061Z,99302.16
2023-05-09T10:22:08.707Z,99300.22
2023-05-09T10:24:48.330Z,99297.06
2023-05-09T10:27:19.624Z,99296.03
2023-05-09T10:29:51.335Z,99282.56
2023-05-09T10:32:24.202Z,99290.03
2023-05-09T10:34:54.878Z,99296.34
2023-05-09T10:37:22.223Z,99293.47
2023-05-09T10:39:53.537Z,99282.28
2023-05-09T10:42:21.763Z,99289.84
2023-05-09T10:44:49.597Z,99299.31
2023-05-09T10:47:17.769Z,99287.13
2023-05-09T10:49:45.618Z,99293.22
2023-05-09T10:52:12.978Z,99307.66
2023-05-09T10:54:40.219Z,99290.78
2023-05-09T10:57:10.958Z,99298.09
2023-05-09T10:59:38.048Z,99290.78
2023-05-09T11:02:05.613Z,99292.16
2023-05-09T11:04:33.787Z,99284.03
2023-05-09T11:07:01.082Z,99280.81
2023-05-09T11:09:33.615Z,99277.87
2023-05-09T11:12:16.369Z,99282.13
2023-05-09T11:14:48.690Z,99275.91
2023-05-09T11:17:21.959Z,99275.72
2023-05-09T11:19:49.119Z,99256.41
2023-05-09T11:22:32.357Z,99261.47
2023-05-09T11:25:01.406Z,99253.03
2023-05-09T11:27:29.579Z,99261.44
2023-05-09T11:29:58.574Z,99260.81
2023-05-09T11:32:32.009Z,99256.81
2023-05-09T11:35:19.527Z,99249.72
2023-05-09T11:37:51.231Z,99249.72
2023-05-09T11:40:20.028Z,99243.94
2023-05-09T11:42:50.010Z,99255.44
2023-05-09T11:45:17.791Z,99250.66
2023-05-09T11:47:47.276Z,99254.87
2023-05-09T11:50:15.651Z,99245.28
2023-05-09T11:52:43.418Z,99239.44
2023-05-09T11:55:12.995Z,99244.81
2023-05-09T11:57:41.955Z,99237.16
2023-05-09T12:00:10.709Z,99236.81
2023-05-09T12:02:38.573Z,99238.06
2023-05-09T12:05:10.915Z,99230.78
2023-05-09T12:07:39.533Z,99232.53
2023-05-09T12:10:10.883Z,99228.59
2023-05-09T12:12:49.440Z,99225.72
2023-05-09T12:15:17.642Z,99220.22
2023-05-09T12:17:47.129Z,99229.84
2023-05-09T12:20:15.392Z,99226.09
2023-05-09T12:22:43.810Z,99219.44
2023-05-09T12:25:11.965Z,99222.66
2023-05-09T12:27:40.791Z,99215.16
2023-05-09T12:30:12.566Z,99219.75
2023-05-09T12:32:40.595Z,99216.50
2023-05-09T12:35:10.748Z,99206.31
2023-05-09T12:37:38.558Z,99200.72
2023-05-09T12:40:15.816Z,99211.22
2023-05-09T12:42:44.650Z,99200.91
2023-05-09T12:45:12.352Z,99195.41
2023-05-09T12:47:41.721Z,99199.31
2023-05-09T12:50:12.635Z,99186.19
2023-05-09T12:52:50.575Z,99180.91
2023-05-09T12:55:28.761Z,99184.59
2023-05-09T12:58:00.052Z,99180.38
2023-05-09T13:00:28.279Z,99181.47
2023-05-09T13:02:55.826Z,99174.03
2023-05-09T13:05:23.332Z,99172.50
2023-05-09T13:07:52.536Z,99172.38
2023-05-09T13:10:28.920Z,99167.88
2023-05-09T13:12:59.859Z,99172.53
2023-05-09T13:15:29.692Z,99162.91
2023-05-09T13:17:57.662Z,99157.22
2023-05-09T13:20:24.696Z,99150.25
2023-05-09T13:22:51.852Z,99156.19
2023-05-09T13:25:20.349Z,99152.06
2023-05-09T13:27:47.439Z,99160.00
2023-05-09T13:30:15.797Z,99164.03
2023-05-09T13:32:43.701Z,99156.56
2023-05-09T13:35:11.275Z,99158.47
2023-05-09T13:37:39.025Z,99150.38
2023-05-09T13:40:07.507Z,99134.75
2023-05-09T13:42:35.958Z,99134.41
2023-05-09T13:45:04.329Z,99134.44
2023-05-09T13:47:31.876Z,99132.84
2023-05-09T13:49:58.995Z,99126.25
2023-05-09T13:52:26.108Z,99121.66
2023-05-09T13:54:53.514Z,99122.75
2023-05-09T13:57:21.081Z,99121.47
2023-05-09T13:59:48.626Z,99124.81
2023-05-09T14:02:16.750Z,99118.13
2023-05-09T14:04:44.100Z,99113.12
2023-05-09T14:07:13.601Z,99112.81
2023-05-09T14:09:40.760Z,99121.50
2023-05-09T14:12:08.279Z,99115.38
2023-05-09T14:14:35.688Z,99115.69
2023-05-09T14:17:02.833Z,99108.44
2023-05-09T14:19:30.670Z,99098.84
2023-05-09T14:21:58.710Z,99103.63
2023-05-09T14:24:26.217Z,99109.19
2023-05-09T14:26:53.576Z,99104.13
2023-05-09T14:29:21.652Z,99094.09
2023-05-09T14:31:48.895Z,99101.00
2023-05-09T14:34:16.650Z,99097.94
2023-05-09T14:36:43.728Z,99089.72
2023-05-09T14:39:10.942Z,99083.84
2023-05-09T14:41:38.453Z,99091.22
2023-05-09T14:44:05.569Z,99082.09
2023-05-09T14:46:33.415Z,99081.84
2023-05-09T14:49:04.260Z,99081.19
2023-05-09T14:51:31.803Z,99077.06
2023-05-09T14:53:59.334Z,99076.16
2023-05-09T14:56:26.938Z,99083.72
2023-05-09T14:58:54.205Z,99082.62
2023-05-09T15:01:21.362Z,99077.03
2023-05-09T15:03:48.887Z,99075.59
2023-05-09T15:06:16.564Z,99079.72
2023-05-09T15:08:43.607Z,99064.78
2023-05-09T15:11:10.982Z,99066.97
2023-05-09T15:13:38.259Z,99073.22
2023-05-09T15:16:05.503Z,99065.47
2023-05-09T15:18:34.396Z,99060.38
2023-05-09T15:21:01.378Z,99057.47
2023-05-09T15:23:28.533Z,99051.53
2023-05-09T15:25:55.879Z,99047.84
2023-05-09T15:28:23.138Z,99046.91
2023-05-09T15:30:50.125Z,99045.66
2023-05-09T15:33:17.691Z,99035.88
2023-05-09T15:35:45.538Z,99041.88
2023-05-09T15:38:13.333Z,99046.50
2023-05-09T15:40:41.396Z,99038.97
2023-05-09T15:43:08.666Z,99033.03
2023-05-09T15:45:39.005Z,99040.09
2023-05-09T15:48:06.904Z,99046.28
2023-05-09T15:50:34.202Z,99041.63
2023-05-09T15:53:01.266Z,99035.53
2023-05-09T15:55:28.804Z,99035.63
2023-05-09T15:57:56.733Z,99034.91
2023-05-09T16:00:24.448Z,99028.38
2023-05-09T16:02:51.874Z,99034.81
2023-05-09T16:05:19.057Z,99024.69
2023-05-09T16:07:47.065Z,99029.28
2023-05-09T16:10:14.640Z,99024.50
2023-05-09T16:12:41.956Z,99022.50
2023-05-09T16:15:09.397Z,99024.56
2023-05-09T16:17:37.964Z,99025.56
2023-05-09T16:20:06.666Z,99025.66
2023-05-09T16:22:33.848Z,99029.25
2023-05-09T16:25:01.201Z,99031.56
2023-05-09T16:27:28.250Z,99025.19
2023-05-09T16:29:55.473Z,99022.47
2023-05-09T16:32:22.860Z,99012.72
2023-05-09T16:34:49.901Z,99017.22
2023-05-09T16:37:18.868Z,99007.22
2023-05-09T16:39:46.423Z,99015.91
2023-05-09T16:42:13.626Z,99010.22
2023-05-09T16:44:41.399Z,99011.03
2023-05-09T16:47:09.053Z,99014.03
2023-05-09T16:49:36.454Z,99012.75
2023-05-09T16:52:03.568Z,99000.94
2023-05-09T16:54:31.685Z,99005.97
2023-05-09T16:56:58.708Z,99003.06
2023-05-09T16:59:27.169Z,99005.97
2023-05-09T17:01:57.570Z,98996.94
2023-05-09T17:04:25.370Z,98997.09
2023-05-09T17:06:53.287Z,98996.34
2023-05-09T17:09:20.892Z,98993.75
2023-05-09T17:11:48.875Z,99001.84
2023-05-09T17:14:15.942Z,98994.75
2023-05-09T17:16:43.338Z,99001.50
2023-05-09T17:19:10.634Z,98990.78
2023-05-09T17:21:41.441Z,98997.75
2023-05-09T17:24:09.633Z,98994.28
2023-05-09T17:26:38.683Z,98987.78
2023-05-09T17:29:06.014Z,98992.06
2023-05-09T17:31:33.486Z,98990.09
2023-05-09T17:34:01.417Z,98993.56
2023-05-09T17:36:28.651Z,98991.53
2023-05-09T17:38:56.322Z,98992.94
2023-05-09T17:41:23.569Z,98988.44
2023-05-09T17:43:51.947Z,98985.16
2023-05-09T17:46:19.401Z,98986.91
2023-05-09T17:48:47.838Z,98981.59
2023-05-09T17:51:15.077Z,98989.28
2023-05-09T17:53:45.361Z,98990.50
2023-05-09T17:56:12.580Z,98991.81
2023-05-09T17:58:39.676Z,98990.69
2023-05-09T18:01:07.187Z,98992.47
2023-05-09T18:03:34.777Z,98989.28
2023-05-09T18:06:02.151Z,98991.81
2023-05-09T18:08:29.818Z,98988.16
2023-05-09T18:10:57.939Z,98986.13
2023-05-09T18:13:25.206Z,98989.66
2023-05-09T18:15:54.988Z,98992.81
2023-05-09T18:18:23.086Z,99001.47
2023-05-09T18:20:50.425Z,98991.09
2023-05-09T18:23:17.741Z,98994.75
2023-05-09T18:25:45.307Z,98983.97
2023-05-09T18:28:12.503Z,98995.25
2023-05-09T18:30:39.716Z,98989.19
2023-05-09T18:33:07.296Z,98986.97
2023-05-09T18:35:35.700Z,98988.91
2023-05-09T18:38:03.307Z,98996.28
2023-05-09T18:40:30.896Z,98999.19
2023-05-09T18:42:59.663Z,98998.81
2023-05-09T18:45:27.256Z,98994.53
2023-05-09T18:47:57.785Z,98996.50
2023-05-09T18:50:24.925Z,98998.12
2023-05-09T18:52:52.186Z,99004.38
2023-05-09T18:55:21.884Z,99001.50
2023-05-09T18:57:49.214Z,99001.50
2023-05-09T19:00:16.971Z,99003.59
2023-05-09T19:02:44.614Z,99002.13
2023-05-09T19:05:11.786Z,99001.06
2023-05-09T19:07:39.083Z,99008.22
2023-05-09T19:10:08.295Z,99005.75
2023-05-09T19:12:35.413Z,98998.00
2023-05-09T19:15:03.104Z,99008.81
2023-05-09T19:17:30.659Z,99008.81
2023-05-09T19:19:57.765Z,99010.75
2023-05-09T19:22:24.768Z,99005.78
2023-05-09T19:24:52.331Z,99010.09
2023-05-09T19:27:19.569Z,99008.97
2023-05-09T19:29:49.314Z,99012.56
2023-05-09T19:32:18.057Z,98998.62
2023-05-09T19:34:45.141Z,99002.94
2023-05-09T19:37:12.192Z,99002.09
2023-05-09T19:39:39.450Z,99005.84
2023-05-09T19:42:06.772Z,98999.94
2023-05-09T19:44:33.883Z,99004.19
2023-05-09T19:47:05.207Z,98999.66
2023-05-09T19:49:34.775Z,99000.50
2023-05-09T19:52:02.012Z,98998.00
2023-05-09T19:54:28.995Z,98998.44
2023-05-09T19:56:56.029Z,98996.50
2023-05-09T19:59:23.376Z,98996.91
2023-05-09T20:01:50.787Z,98992.63
2023-05-09T20:04:21.817Z,98995.53
2023-05-09T20:06:49.049Z,98995.94
2023-05-09T20:09:20.779Z,98993.72
2023-05-09T20:11:48.339Z,98993.88
2023-05-09T20:14:15.500Z,98989.88
2023-05-09T20:16:43.833Z,98988.37
2023-05-09T20:19:14.632Z,98984.91
2023-05-09T20:21:41.780Z,98983.00
2023-05-09T20:24:08.989Z,98987.69
2023-05-09T20:26:36.332Z,98983.81
2023-05-09T20:29:03.686Z,98982.69
2023-05-09T20:31:31.405Z,98981.19
2023-05-09T20:33:59.050Z,98986.69
2023-05-09T20:36:27.743Z,98977.75
2023-05-09T20:38:56.445Z,98971.09
2023-05-09T20:41:24.149Z,98975.94
2023-05-09T20:43:51.226Z,98978.97
2023-05-09T20:46:18.383Z,98971.91
2023-05-09T20:48:48.088Z,98968.34
2023-05-09T20:51:15.332Z,98959.25
2023-05-09T20:53:42.314Z,98960.75
2023-05-09T20:56:09.649Z,98967.66
2023-05-09T20:58:36.779Z,98963.63
2023-05-09T21:01:03.996Z,98965.03
2023-05-09T21:03:31.407Z,98963.91
2023-05-09T21:05:58.963Z,98965.44
2023-05-09T21:08:26.389Z,98960.06
2023-05-09T21:10:54.396Z,98962.00
2023-05-09T21:13:21.525Z,98963.09
2023-05-09T21:15:50.451Z,98958.53
2023-05-09T21:18:18.408Z,98959.75
2023-05-09T21:20:45.982Z,98959.75
2023-05-09T21:23:13.088Z,98955.91
2023-05-09T21:25:40.487Z,98954.38
2023-05-09T21:28:07.642Z,98957.00
2023-05-09T21:30:34.667Z,98948.72
2023-05-09T21:33:03.804Z,98948.19
2023-05-09T21:35:31.193Z,98955.91
2023-05-09T21:37:58.276Z,98956.19
2023-05-09T21:40:25.625Z,98949.81
2023-05-09T21:42:54.065Z,98949.53
2023-05-09T21:45:21.193Z,98939.59
2023-05-09T21:47:48.912Z,98942.63
2023-05-09T21:50:16.247Z,98949.53
2023-05-09T21:52:43.551Z,98952.00
2023-05-09T21:55:11.168Z,98950.38
2023-05-09T21:57:38.249Z,98950.06
2023-05-09T22:00:06.824Z,98946.34
2023-05-09T22:02:40.345Z,98948.16
2023-05-09T22:05:09.284Z,98951.19
2023-05-09T22:07:36.867Z,98944.84
2023-05-09T22:10:04.636Z,98941.37
2023-05-09T22:12:32.025Z,98933.69
2023-05-09T22:14:59.105Z,98934.09
2023-05-09T22:17:26.343Z,98929.25
2023-05-09T22:19:53.713Z,98938.66
2023-05-09T22:22:21.414Z,98937.16
2023-05-09T22:24:49.766Z,98934.09
2023-05-09T22:27:17.214Z,98934.66
2023-05-09T22:29:44.752Z,98929.53
2023-05-09T22:32:11.915Z,98936.97
2023-05-09T22:34:39.835Z,98942.78
2023-05-09T22:37:07.080Z,98945.41
2023-05-09T22:39:34.163Z,98942.63
2023-05-09T22:42:03.945Z,98940.41
2023-05-09T22:44:32.450Z,98936.00
2023-05-09T22:46:59.835Z,98934.06
2023-05-09T22:49:27.379Z,98935.72
2023-05-09T22:51:54.433Z,98933.09
2023-05-09T22:54:22.220Z,98935.00
2023-05-09T22:56:49.649Z,98921.75
2023-05-09T22:59:16.774Z,98930.16
2023-05-09T23:01:43.979Z,98925.87
2023-05-09T23:04:11.482Z,98930.44
2023-05-09T23:06:38.585Z,98929.22
2023-05-09T23:09:05.603Z,98923.94
2023-05-09T23:11:32.973Z,98921.44
2023-05-09T23:14:00.105Z,98917.72
2023-05-09T23:16:27.188Z,98926.00
2023-05-09T23:18:54.622Z,98923.19
2023-05-09T23:21:21.710Z,98921.66
2023-05-09T23:23:48.832Z,98919.84
2023-05-09T23:26:16.205Z,98923.81
2023-05-09T23:28:43.313Z,98918.97
2023-05-09T23:31:10.674Z,98921.25
2023-05-09T23:33:38.288Z,98924.28
2023-05-09T23:36:06.212Z,98914.59
2023-05-09T23:38:33.273Z,98917.41
2023-05-09T23:41:01.314Z,98915.62
2023-05-09T23:43:28.934Z,98909.66
2023-05-09T23:45:56.808Z,98910.19
2023-05-09T23:48:24.275Z,98903.37
2023-05-09T23:50:51.849Z,98913.66
2023-05-09T23:53:18.960Z,98902.31
2023-05-09T23:55:46.295Z,98900.25
2023-05-09T23:58:13.376Z,98907.97
